createdAt,value
2022-11-25T00:00:17.106Z,100.0
2022-11-25T00:01:16.581Z,100.0
2022-11-25T00:02:17.765Z,100.0
2022-11-25T00:03:17.478Z,100.0
2022-11-25T00:04:17.026Z,100.0
2022-11-25T00:05:16.493Z,100.0
2022-11-25T00:06:16.983Z,100.0
2022-11-25T00:07:16.604Z,100.0
2022-11-25T00:08:17.117Z,100.0
2022-11-25T00:09:16.624Z,100.0
2022-11-25T00:10:17.129Z,100.0
2022-11-25T00:11:16.605Z,100.0
2022-11-25T00:12:16.557Z,100.0
2022-11-25T00:13:17.020Z,100.0
2022-11-25T00:14:16.499Z,100.0
2022-11-25T00:15:16.979Z,100.0
2022-11-25T00:16:16.777Z,100.0
2022-11-25T00:17:17.314Z,100.0
2022-11-25T00:18:16.818Z,100.0
2022-11-25T00:19:17.341Z,100.0
2022-11-25T00:20:16.844Z,100.0
2022-11-25T00:21:17.358Z,100.0
2022-11-25T00:22:16.984Z,100.0
2022-11-25T00:23:16.484Z,100.0
2022-11-25T00:24:16.980Z,100.0
2022-11-25T00:25:16.468Z,100.0
2022-11-25T00:26:16.959Z,100.0
2022-11-25T00:27:17.449Z,100.0
2022-11-25T00:28:16.957Z,100.0
2022-11-25T00:29:17.434Z,100.0
2022-11-25T00:30:16.944Z,100.0
2022-11-25T00:31:17.550Z,100.0
2022-11-25T00:32:17.355Z,100.0
2022-11-25T00:33:16.837Z,100.0
2022-11-25T00:34:17.325Z,100.0
2022-11-25T00:35:16.902Z,100.0
2022-11-25T00:36:16.647Z,100.0
2022-11-25T00:37:17.132Z,100.0
2022-11-25T00:38:16.647Z,100.0
2022-11-25T00:39:17.120Z,100.0
2022-11-25T00:40:16.614Z,100.0
2022-11-25T00:41:17.093Z,100.0
2022-11-25T00:42:16.830Z,100.0
2022-11-25T00:43:17.331Z,100.0
2022-11-25T00:44:16.850Z,100.0
2022-11-25T00:45:17.317Z,100.0
2022-11-25T00:46:16.896Z,100.0
2022-11-25T00:47:17.372Z,100.0
2022-11-25T00:48:16.851Z,100.0
2022-11-25T00:49:17.325Z,100.0
2022-11-25T00:50:16.899Z,100.0
2022-11-25T00:51:17.427Z,100.0
2022-11-25T00:52:16.909Z,100.0
2022-11-25T00:53:17.434Z,100.0
2022-11-25T00:54:16.916Z,100.0
2022-11-25T00:55:17.398Z,100.0
2022-11-25T00:56:16.902Z,100.0
2022-11-25T00:57:17.377Z,100.0
2022-11-25T00:58:16.842Z,100.0
2022-11-25T00:59:17.317Z,100.0
2022-11-25T01:00:16.819Z,100.0
2022-11-25T01:01:17.391Z,100.0
2022-11-25T01:02:16.983Z,100.0
2022-11-25T01:03:16.522Z,100.0
2022-11-25T01:04:17.018Z,100.0
2022-11-25T01:05:16.489Z,100.0
2022-11-25T01:06:16.980Z,100.0
2022-11-25T01:07:16.567Z,100.0
2022-11-25T01:08:17.121Z,100.0
2022-11-25T01:09:16.607Z,100.0
2022-11-25T01:10:17.108Z,100.0
2022-11-25T01:11:16.577Z,100.0
2022-11-25T01:12:16.486Z,100.0
2022-11-25T01:13:16.965Z,100.0
2022-11-25T01:14:17.434Z,100.0
2022-11-25T01:15:16.903Z,100.0
2022-11-25T01:16:17.459Z,100.0
2022-11-25T01:17:16.997Z,100.0
2022-11-25T01:18:16.506Z,100.0
2022-11-25T01:19:17.446Z,100.0
2022-11-25T01:20:16.948Z,100.0
2022-11-25T01:21:17.440Z,100.0
2022-11-25T01:22:17.326Z,100.0
2022-11-25T01:23:16.803Z,100.0
2022-11-25T01:24:17.284Z,100.0
2022-11-25T01:25:16.746Z,100.0
2022-11-25T01:26:17.220Z,100.0
2022-11-25T01:27:16.689Z,100.0
2022-11-25T01:28:17.187Z,100.0
2022-11-25T01:29:16.670Z,100.0
2022-11-25T01:30:17.163Z,100.0
2022-11-25T01:31:16.717Z,100.0
2022-11-25T01:32:17.339Z,100.0
2022-11-25T01:33:16.824Z,100.0
2022-11-25T01:34:17.337Z,100.0
2022-11-25T01:35:16.829Z,100.0
2022-11-25T01:36:17.329Z,100.0
2022-11-25T01:37:16.822Z,100.0
2022-11-25T01:38:17.294Z,100.0
2022-11-25T01:39:16.780Z,100.0
2022-11-25T01:40:17.252Z,100.0
2022-11-25T01:41:16.723Z,100.0
2022-11-25T01:42:16.900Z,100.0
2022-11-25T01:43:17.396Z,100.0
2022-11-25T01:44:16.886Z,100.0
2022-11-25T01:45:17.380Z,100.0
2022-11-25T01:46:17.102Z,100.0
2022-11-25T01:47:16.652Z,100.0
2022-11-25T01:48:17.145Z,100.0
2022-11-25T01:49:16.650Z,100.0
2022-11-25T01:50:17.171Z,100.0
2022-11-25T01:51:16.963Z,100.0
2022-11-25T01:52:16.807Z,100.0
2022-11-25T01:53:17.271Z,100.0
2022-11-25T01:54:16.775Z,100.0
2022-11-25T01:55:17.269Z,100.0
2022-11-25T01:56:16.734Z,100.0
2022-11-25T01:57:17.228Z,100.0
2022-11-25T01:58:16.701Z,100.0
2022-11-25T01:59:17.177Z,100.0
2022-11-25T02:00:16.673Z,100.0
2022-11-25T02:01:17.343Z,100.0
2022-11-25T02:02:17.132Z,100.0
2022-11-25T02:03:16.675Z,100.0
2022-11-25T02:04:17.213Z,100.0
2022-11-25T02:05:16.688Z,100.0
2022-11-25T02:06:17.169Z,100.0
2022-11-25T02:07:16.807Z,100.0
2022-11-25T02:08:17.318Z,100.0
2022-11-25T02:09:16.794Z,100.0
2022-11-25T02:10:17.290Z,100.0
2022-11-25T02:11:16.787Z,100.0
2022-11-25T02:12:17.168Z,100.0
2022-11-25T02:13:16.639Z,100.0
2022-11-25T02:14:17.104Z,100.0
2022-11-25T02:15:16.619Z,100.0
2022-11-25T02:16:17.211Z,100.0
2022-11-25T02:17:16.726Z,100.0
2022-11-25T02:18:17.221Z,100.0
2022-11-25T02:19:16.702Z,100.0
2022-11-25T02:20:17.193Z,100.0
2022-11-25T02:21:16.675Z,100.0
2022-11-25T02:22:17.079Z,100.0
2022-11-25T02:23:16.547Z,100.0
2022-11-25T02:24:17.038Z,100.0
2022-11-25T02:25:16.517Z,100.0
2022-11-25T02:26:16.996Z,100.0
2022-11-25T02:27:16.484Z,100.0
2022-11-25T02:28:16.951Z,100.0
2022-11-25T02:29:17.462Z,100.0
2022-11-25T02:30:16.940Z,100.0
2022-11-25T02:31:17.558Z,100.0
2022-11-25T02:32:17.359Z,100.0
2022-11-25T02:33:16.837Z,100.0
2022-11-25T02:34:17.354Z,100.0
2022-11-25T02:35:16.826Z,100.0
2022-11-25T02:36:17.322Z,100.0
2022-11-25T02:37:16.812Z,100.0
2022-11-25T02:38:17.284Z,100.0
2022-11-25T02:39:16.737Z,100.0
2022-11-25T02:40:17.194Z,100.0
2022-11-25T02:41:16.704Z,100.0
2022-11-25T02:42:17.020Z,100.0
2022-11-25T02:43:16.493Z,100.0
2022-11-25T02:44:16.956Z,100.0
2022-11-25T02:45:17.455Z,100.0
2022-11-25T02:46:22.889Z,100.0
2022-11-25T02:47:17.439Z,100.0
2022-11-25T02:48:16.933Z,100.0
2022-11-25T02:49:17.421Z,100.0
2022-11-25T02:50:16.892Z,100.0
2022-11-25T02:51:17.845Z,100.0
2022-11-25T02:52:17.238Z,100.0
2022-11-25T02:53:16.730Z,100.0
2022-11-25T02:54:17.224Z,100.0
2022-11-25T02:55:16.698Z,100.0
2022-11-25T02:56:17.194Z,100.0
2022-11-25T02:57:16.727Z,100.0
2022-11-25T02:58:17.228Z,100.0
2022-11-25T02:59:16.759Z,100.0
2022-11-25T03:00:17.249Z,100.0
2022-11-25T03:01:16.889Z,100.0
2022-11-25T03:02:16.792Z,100.0
2022-11-25T03:03:17.378Z,100.0
2022-11-25T03:04:16.881Z,100.0
2022-11-25T03:05:17.382Z,100.0
2022-11-25T03:06:16.836Z,100.0
2022-11-25T03:07:17.421Z,100.0
2022-11-25T03:08:16.910Z,100.0
2022-11-25T03:09:17.399Z,100.0
2022-11-25T03:10:16.873Z,100.0
2022-11-25T03:11:17.396Z,100.0
2022-11-25T03:12:16.977Z,100.0
2022-11-25T03:13:16.469Z,100.0
2022-11-25T03:14:16.955Z,100.0
2022-11-25T03:15:17.442Z,100.0
2022-11-25T03:16:17.050Z,100.0
2022-11-25T03:17:16.555Z,100.0
2022-11-25T03:18:17.042Z,100.0
2022-11-25T03:19:16.545Z,100.0
2022-11-25T03:20:17.034Z,100.0
2022-11-25T03:21:16.496Z,100.0
2022-11-25T03:22:16.612Z,100.0
2022-11-25T03:23:17.080Z,100.0
2022-11-25T03:24:16.551Z,100.0
2022-11-25T03:25:17.015Z,100.0
2022-11-25T03:26:16.518Z,100.0
2022-11-25T03:27:17.025Z,100.0
2022-11-25T03:28:16.494Z,100.0
2022-11-25T03:29:16.979Z,100.0
2022-11-25T03:30:16.459Z,100.0
2022-11-25T03:31:17.050Z,100.0
2022-11-25T03:32:16.711Z,100.0
2022-11-25T03:33:17.222Z,100.0
2022-11-25T03:34:16.683Z,100.0
2022-11-25T03:35:17.144Z,100.0
2022-11-25T03:36:16.618Z,100.0
2022-11-25T03:37:17.239Z,100.0
2022-11-25T03:38:16.718Z,100.0
2022-11-25T03:39:17.183Z,100.0
2022-11-25T03:40:16.643Z,100.0
2022-11-25T03:41:17.132Z,100.0
2022-11-25T03:42:16.584Z,100.0
2022-11-25T03:43:17.070Z,100.0
2022-11-25T03:44:16.571Z,100.0
2022-11-25T03:45:17.067Z,100.0
2022-11-25T03:46:16.691Z,100.0
2022-11-25T03:47:17.196Z,100.0
2022-11-25T03:48:16.669Z,100.0
2022-11-25T03:49:17.145Z,100.0
2022-11-25T03:50:16.638Z,100.0
2022-11-25T03:51:17.113Z,100.0
2022-11-25T03:52:17.314Z,100.0
2022-11-25T03:53:16.782Z,100.0
2022-11-25T03:54:17.279Z,100.0
2022-11-25T03:55:16.794Z,100.0
2022-11-25T03:56:17.333Z,100.0
2022-11-25T03:57:16.825Z,100.0
2022-11-25T03:58:17.306Z,100.0
2022-11-25T03:59:16.787Z,100.0
2022-11-25T04:00:17.304Z,100.0
2022-11-25T04:01:16.906Z,100.0
2022-11-25T04:02:17.221Z,100.0
2022-11-25T04:03:16.732Z,100.0
2022-11-25T04:04:17.214Z,100.0
2022-11-25T04:05:16.665Z,100.0
2022-11-25T04:06:17.133Z,100.0
2022-11-25T04:07:16.780Z,100.0
2022-11-25T04:08:17.268Z,100.0
2022-11-25T04:09:16.761Z,100.0
2022-11-25T04:10:17.241Z,100.0
2022-11-25T04:11:16.723Z,100.0
2022-11-25T04:12:16.911Z,100.0
2022-11-25T04:13:17.382Z,100.0
2022-11-25T04:14:16.887Z,100.0
2022-11-25T04:15:17.362Z,100.0
2022-11-25T04:16:16.878Z,100.0
2022-11-25T04:17:17.389Z,100.0
2022-11-25T04:18:16.859Z,100.0
2022-11-25T04:19:17.343Z,100.0
2022-11-25T04:20:16.812Z,100.0
2022-11-25T04:21:17.333Z,100.0
2022-11-25T04:22:17.151Z,100.0
2022-11-25T04:23:16.670Z,100.0
2022-11-25T04:24:17.132Z,100.0
2022-11-25T04:25:16.627Z,100.0
2022-11-25T04:26:17.135Z,100.0
2022-11-25T04:27:16.625Z,100.0
2022-11-25T04:28:17.100Z,100.0
2022-11-25T04:29:16.570Z,100.0
2022-11-25T04:30:17.103Z,100.0
2022-11-25T04:31:16.693Z,100.0
2022-11-25T04:32:17.255Z,100.0
2022-11-25T04:33:16.737Z,100.0
2022-11-25T04:34:17.206Z,100.0
2022-11-25T04:35:16.704Z,100.0
2022-11-25T04:36:17.205Z,100.0
2022-11-25T04:37:16.708Z,100.0
2022-11-25T04:38:17.222Z,100.0
2022-11-25T04:39:16.688Z,100.0
2022-11-25T04:40:17.154Z,100.0
2022-11-25T04:41:16.651Z,100.0
2022-11-25T04:42:16.492Z,100.0
2022-11-25T04:43:16.954Z,100.0
2022-11-25T04:44:17.440Z,100.0
2022-11-25T04:45:24.668Z,100.0
2022-11-25T04:46:17.397Z,100.0
2022-11-25T04:47:16.909Z,100.0
2022-11-25T04:48:17.407Z,100.0
2022-11-25T04:49:16.877Z,100.0
2022-11-25T04:50:17.377Z,100.0
2022-11-25T04:51:16.869Z,100.0
2022-11-25T04:52:17.067Z,100.0
2022-11-25T04:53:16.530Z,100.0
2022-11-25T04:54:17.856Z,100.0
2022-11-25T04:55:17.356Z,100.0
2022-11-25T04:56:16.848Z,100.0
2022-11-25T04:57:17.361Z,100.0
2022-11-25T04:58:16.889Z,100.0
2022-11-25T04:59:17.333Z,100.0
2022-11-25T05:00:16.810Z,100.0
2022-11-25T05:01:17.404Z,100.0
2022-11-25T05:02:16.836Z,100.0
2022-11-25T05:03:17.347Z,100.0
2022-11-25T05:04:16.812Z,100.0
2022-11-25T05:05:17.302Z,100.0
2022-11-25T05:06:16.814Z,100.0
2022-11-25T05:07:17.364Z,100.0
2022-11-25T05:08:16.911Z,100.0
2022-11-25T05:09:17.443Z,100.0
2022-11-25T05:10:16.923Z,100.0
2022-11-25T05:11:17.436Z,100.0
2022-11-25T05:12:17.276Z,100.0
2022-11-25T05:13:16.742Z,100.0
2022-11-25T05:14:17.232Z,100.0
2022-11-25T05:15:16.815Z,100.0
2022-11-25T05:16:17.445Z,100.0
2022-11-25T05:17:16.947Z,100.0
2022-11-25T05:18:17.473Z,100.0
2022-11-25T05:19:16.955Z,100.0
2022-11-25T05:20:17.425Z,100.0
2022-11-25T05:21:16.897Z,100.0
2022-11-25T05:22:17.400Z,100.0
2022-11-25T05:23:16.912Z,100.0
2022-11-25T05:24:17.388Z,100.0
2022-11-25T05:25:16.876Z,100.0
2022-11-25T05:26:17.364Z,100.0
2022-11-25T05:27:16.835Z,100.0
2022-11-25T05:28:17.318Z,100.0
2022-11-25T05:29:16.798Z,100.0
2022-11-25T05:30:17.279Z,100.0
2022-11-25T05:31:16.915Z,100.0
2022-11-25T05:32:17.410Z,100.0
2022-11-25T05:33:16.885Z,100.0
2022-11-25T05:34:17.378Z,100.0
2022-11-25T05:35:16.849Z,100.0
2022-11-25T05:36:17.341Z,100.0
2022-11-25T05:37:24.281Z,100.0
2022-11-25T05:38:17.087Z,100.0
2022-11-25T05:39:16.559Z,100.0
2022-11-25T05:40:17.082Z,100.0
2022-11-25T05:41:16.557Z,100.0
2022-11-25T05:42:17.351Z,100.0
2022-11-25T05:43:16.870Z,100.0
2022-11-25T05:44:23.170Z,100.0
2022-11-25T05:45:16.814Z,100.0
2022-11-25T05:46:17.665Z,100.0
2022-11-25T05:47:17.201Z,100.0
2022-11-25T05:48:16.662Z,100.0
2022-11-25T05:49:17.161Z,100.0
2022-11-25T05:50:16.655Z,100.0
2022-11-25T05:51:17.142Z,100.0
2022-11-25T05:52:16.571Z,100.0
2022-11-25T05:53:17.056Z,100.0
2022-11-25T05:54:16.519Z,100.0
2022-11-25T05:55:16.996Z,100.0
2022-11-25T05:56:16.453Z,100.0
2022-11-25T05:57:16.910Z,100.0
2022-11-25T05:58:17.513Z,100.0
2022-11-25T05:59:16.996Z,100.0
2022-11-25T06:00:16.456Z,100.0
2022-11-25T06:01:16.938Z,100.0
2022-11-25T06:02:17.294Z,100.0
2022-11-25T06:03:17.074Z,100.0
2022-11-25T06:04:16.690Z,100.0
2022-11-25T06:05:17.192Z,100.0
2022-11-25T06:06:16.701Z,100.0
2022-11-25T06:07:17.279Z,100.0
2022-11-25T06:08:16.813Z,100.0
2022-11-25T06:09:17.309Z,100.0
2022-11-25T06:10:16.776Z,100.0
2022-11-25T06:11:17.293Z,100.0
2022-11-25T06:12:17.229Z,100.0
2022-11-25T06:13:16.705Z,100.0
2022-11-25T06:14:17.174Z,100.0
2022-11-25T06:15:16.660Z,100.0
2022-11-25T06:16:17.434Z,100.0
2022-11-25T06:17:16.945Z,100.0
2022-11-25T06:18:17.441Z,100.0
2022-11-25T06:19:16.934Z,100.0
2022-11-25T06:20:17.428Z,100.0
2022-11-25T06:21:16.896Z,100.0
2022-11-25T06:22:16.559Z,100.0
2022-11-25T06:23:17.029Z,100.0
2022-11-25T06:24:16.478Z,100.0
2022-11-25T06:25:16.949Z,100.0
2022-11-25T06:26:17.493Z,100.0
2022-11-25T06:27:16.968Z,100.0
2022-11-25T06:28:16.449Z,100.0
2022-11-25T06:29:16.934Z,100.0
2022-11-25T06:30:17.439Z,100.0
2022-11-25T06:31:17.057Z,100.0
2022-11-25T06:32:17.174Z,100.0
2022-11-25T06:33:16.646Z,100.0
2022-11-25T06:34:17.142Z,100.0
2022-11-25T06:35:16.611Z,100.0
2022-11-25T06:36:17.184Z,100.0
2022-11-25T06:37:16.721Z,100.0
2022-11-25T06:38:17.221Z,100.0
2022-11-25T06:39:16.738Z,100.0
2022-11-25T06:40:17.221Z,100.0
2022-11-25T06:41:16.720Z,100.0
2022-11-25T06:42:17.205Z,100.0
2022-11-25T06:43:16.712Z,100.0
2022-11-25T06:44:17.218Z,100.0
2022-11-25T06:45:16.726Z,100.0
2022-11-25T06:46:25.292Z,100.0
2022-11-25T06:47:17.002Z,100.0
2022-11-25T06:48:16.469Z,100.0
2022-11-25T06:49:16.949Z,100.0
2022-11-25T06:50:17.402Z,100.0
2022-11-25T06:51:16.854Z,100.0
2022-11-25T06:52:16.582Z,100.0
2022-11-25T06:53:24.170Z,100.0
2022-11-25T06:54:16.797Z,100.0
2022-11-25T06:55:17.312Z,100.0
2022-11-25T06:56:16.795Z,100.0
2022-11-25T06:57:17.316Z,100.0
2022-11-25T06:58:35.672Z,100.0
2022-11-25T06:59:17.430Z,100.0
2022-11-25T07:00:16.916Z,100.0
2022-11-25T07:01:17.526Z,100.0
2022-11-25T07:02:17.090Z,100.0
2022-11-25T07:03:16.751Z,100.0
2022-11-25T07:04:17.230Z,100.0
2022-11-25T07:05:16.741Z,100.0
2022-11-25T07:06:17.220Z,100.0
2022-11-25T07:07:16.813Z,100.0
2022-11-25T07:08:17.344Z,100.0
2022-11-25T07:09:16.821Z,100.0
2022-11-25T07:10:17.356Z,100.0
2022-11-25T07:11:16.815Z,100.0
2022-11-25T07:12:16.971Z,100.0
2022-11-25T07:13:17.440Z,100.0
2022-11-25T07:14:16.967Z,100.0
2022-11-25T07:15:16.479Z,100.0
2022-11-25T07:16:17.091Z,100.0
2022-11-25T07:17:16.613Z,100.0
2022-11-25T07:18:17.086Z,100.0
2022-11-25T07:19:16.593Z,100.0
2022-11-25T07:20:17.097Z,100.0
2022-11-25T07:21:16.577Z,100.0
2022-11-25T07:22:17.064Z,100.0
2022-11-25T07:23:16.563Z,99.8
2022-11-25T07:24:17.051Z,99.8
2022-11-25T07:25:16.525Z,99.7
2022-11-25T07:26:17.039Z,99.7
2022-11-25T07:27:16.515Z,99.7
2022-11-25T07:28:17.031Z,99.7
2022-11-25T07:29:58.145Z,99.6
2022-11-25T07:31:21.475Z,99.5
2022-11-25T07:31:31.434Z,99.6
2022-11-25T07:32:16.750Z,99.7
2022-11-25T07:33:17.412Z,99.7
2022-11-25T07:34:17.201Z,99.7
2022-11-25T07:35:16.734Z,99.7
2022-11-25T07:36:17.223Z,99.8
2022-11-25T07:37:16.727Z,99.8
2022-11-25T07:38:17.221Z,99.8
2022-11-25T07:39:16.691Z,99.6
2022-11-25T07:40:17.160Z,99.3
2022-11-25T07:41:16.649Z,99.3
2022-11-25T07:42:16.827Z,99.2
2022-11-25T07:43:17.278Z,99.1
2022-11-25T07:44:16.771Z,99.0
2022-11-25T07:45:17.260Z,99.1
2022-11-25T07:46:19.805Z,99.0
2022-11-25T07:47:16.484Z,99.2
2022-11-25T07:48:16.995Z,99.1
2022-11-25T07:49:16.492Z,99.0
2022-11-25T07:50:16.992Z,98.9
2022-11-25T07:51:16.501Z,98.8
2022-11-25T07:52:17.279Z,98.8
2022-11-25T07:53:16.742Z,98.8
2022-11-25T07:54:17.210Z,98.8
2022-11-25T07:55:16.656Z,98.8
2022-11-25T07:56:17.131Z,98.7
2022-11-25T07:57:16.672Z,98.8
2022-11-25T07:58:17.191Z,98.8
2022-11-25T07:59:16.692Z,98.8
2022-11-25T08:00:17.173Z,98.8
2022-11-25T08:01:16.755Z,98.8
2022-11-25T08:02:16.935Z,98.9
2022-11-25T08:03:17.663Z,98.9
2022-11-25T08:04:21.179Z,98.8
2022-11-25T08:05:16.731Z,98.8
2022-11-25T08:06:17.184Z,98.5
2022-11-25T08:07:16.751Z,98.7
2022-11-25T08:08:17.237Z,98.8
2022-11-25T08:09:16.714Z,98.8
2022-11-25T08:10:17.179Z,98.8
2022-11-25T08:11:16.681Z,98.7
2022-11-25T08:12:17.414Z,98.7
2022-11-25T08:13:16.880Z,98.8
2022-11-25T08:14:17.374Z,98.8
2022-11-25T08:15:16.862Z,98.7
2022-11-25T08:16:17.820Z,98.5
2022-11-25T08:17:17.394Z,98.4
2022-11-25T08:18:16.886Z,98.2
2022-11-25T08:19:17.513Z,98.1
2022-11-25T08:20:17.005Z,98.2
2022-11-25T08:21:16.490Z,98.1
2022-11-25T08:22:17.373Z,98.0
2022-11-25T08:23:16.838Z,97.8
2022-11-25T08:24:17.334Z,97.9
2022-11-25T08:25:16.849Z,97.8
2022-11-25T08:26:17.362Z,97.7
2022-11-25T08:27:16.836Z,97.6
2022-11-25T08:28:17.322Z,97.7
2022-11-25T08:29:16.799Z,97.5
2022-11-25T08:30:17.275Z,97.7
2022-11-25T08:31:16.862Z,97.5
2022-11-25T08:32:17.167Z,97.5
2022-11-25T08:33:16.633Z,97.2
2022-11-25T08:34:17.126Z,97.0
2022-11-25T08:35:16.621Z,97.0
2022-11-25T08:36:17.076Z,97.0
2022-11-25T08:37:16.561Z,96.7
2022-11-25T08:38:17.037Z,96.9
2022-11-25T08:39:50.973Z,96.7
2022-11-25T08:40:17.022Z,96.4
2022-11-25T08:41:16.522Z,96.4
2022-11-25T08:42:17.272Z,96.4
2022-11-25T08:43:16.751Z,95.9
2022-11-25T08:44:17.240Z,95.2
2022-11-25T08:45:16.760Z,95.1
2022-11-25T08:46:17.395Z,94.9
2022-11-25T08:47:16.929Z,94.5
2022-11-25T08:48:17.445Z,94.5
2022-11-25T08:49:16.923Z,93.9
2022-11-25T08:50:17.421Z,93.4
2022-11-25T08:51:16.890Z,93.2
2022-11-25T08:52:17.447Z,93.3
2022-11-25T08:53:16.925Z,92.8
2022-11-25T08:54:17.424Z,92.2
2022-11-25T08:55:16.925Z,91.8
2022-11-25T08:56:25.644Z,92.4
2022-11-25T08:57:17.292Z,91.9
2022-11-25T08:58:16.775Z,92.2
2022-11-25T08:59:17.241Z,92.6
2022-11-25T09:00:16.765Z,92.0
2022-11-25T09:01:17.337Z,92.2
2022-11-25T09:02:17.132Z,92.0
2022-11-25T09:03:16.846Z,93.0
2022-11-25T09:04:17.339Z,93.5
2022-11-25T09:05:16.814Z,93.8
2022-11-25T09:06:17.354Z,94.3
2022-11-25T09:07:16.949Z,94.2
2022-11-25T09:08:16.651Z,94.5
2022-11-25T09:09:17.170Z,94.3
2022-11-25T09:10:16.677Z,93.9
2022-11-25T09:11:17.366Z,93.8
2022-11-25T09:12:16.886Z,93.9
2022-11-25T09:13:17.366Z,93.5
2022-11-25T09:14:16.976Z,93.3
2022-11-25T09:15:16.481Z,93.3
2022-11-25T09:16:17.084Z,93.8
2022-11-25T09:17:16.584Z,94.0
2022-11-25T09:18:17.063Z,94.5
2022-11-25T09:19:16.538Z,94.9
2022-11-25T09:20:17.029Z,94.5
2022-11-25T09:21:16.531Z,94.5
2022-11-25T09:22:17.182Z,94.5
2022-11-25T09:23:16.681Z,94.5
2022-11-25T09:24:17.165Z,94.5
2022-11-25T09:25:16.647Z,94.5
2022-11-25T09:26:17.159Z,94.3
2022-11-25T09:27:16.661Z,94.8
2022-11-25T09:28:17.122Z,94.8
2022-11-25T09:29:16.593Z,95.0
2022-11-25T09:30:17.130Z,95.0
2022-11-25T09:31:16.770Z,95.0
2022-11-25T09:32:17.360Z,95.0
2022-11-25T09:33:16.826Z,94.9
2022-11-25T09:34:17.299Z,95.2
2022-11-25T09:35:16.795Z,95.2
2022-11-25T09:36:17.328Z,95.0
2022-11-25T09:37:16.799Z,95.0
2022-11-25T09:38:17.288Z,95.0
2022-11-25T09:39:16.793Z,94.8
2022-11-25T09:40:17.313Z,94.8
2022-11-25T09:41:16.789Z,94.8
2022-11-25T09:42:17.393Z,94.9
2022-11-25T09:43:16.878Z,94.3
2022-11-25T09:44:17.344Z,94.5
2022-11-25T09:45:16.835Z,94.6
2022-11-25T09:46:17.393Z,94.6
2022-11-25T09:47:16.950Z,94.5
2022-11-25T09:48:17.429Z,94.5
2022-11-25T09:49:16.942Z,94.5
2022-11-25T09:50:17.419Z,94.2
2022-11-25T09:51:16.927Z,94.0
2022-11-25T09:52:17.390Z,93.9
2022-11-25T09:53:16.902Z,93.8
2022-11-25T09:54:17.381Z,93.8
2022-11-25T09:55:16.830Z,93.8
2022-11-25T09:56:17.320Z,93.8
2022-11-25T09:57:16.804Z,93.7
2022-11-25T09:58:17.276Z,93.8
2022-11-25T09:59:16.753Z,93.7
2022-11-25T10:00:17.254Z,93.6
2022-11-25T10:01:16.758Z,93.2
2022-11-25T10:02:17.005Z,93.2
2022-11-25T10:03:16.719Z,93.3
2022-11-25T10:04:17.263Z,92.5
2022-11-25T10:05:16.761Z,92.8
2022-11-25T10:06:17.836Z,93.2
2022-11-25T10:07:17.363Z,93.0
2022-11-25T10:08:16.840Z,92.9
2022-11-25T10:09:17.305Z,92.5
2022-11-25T10:10:16.769Z,93.1
2022-11-25T10:11:17.289Z,93.1
2022-11-25T10:12:16.993Z,93.0
2022-11-25T10:13:16.473Z,92.5
2022-11-25T10:14:16.949Z,92.3
2022-11-25T10:15:17.476Z,91.8
2022-11-25T10:16:17.065Z,91.7
2022-11-25T10:17:16.565Z,91.5
2022-11-25T10:18:17.066Z,92.1
2022-11-25T10:19:16.565Z,92.1
2022-11-25T10:20:17.071Z,91.8
2022-11-25T10:21:16.581Z,91.8
2022-11-25T10:22:17.079Z,91.3
2022-11-25T10:23:16.546Z,91.2
2022-11-25T10:24:17.013Z,91.3
2022-11-25T10:25:16.488Z,91.6
2022-11-25T10:26:16.951Z,91.8
2022-11-25T10:27:17.422Z,91.8
2022-11-25T10:28:16.890Z,91.7
2022-11-25T10:29:17.378Z,91.5
2022-11-25T10:30:16.885Z,91.6
2022-11-25T10:31:17.548Z,91.5
2022-11-25T10:32:17.132Z,91.2
2022-11-25T10:33:16.620Z,91.7
2022-11-25T10:34:17.098Z,91.8
2022-11-25T10:35:16.584Z,91.6
2022-11-25T10:36:17.086Z,90.3
2022-11-25T10:37:16.546Z,90.5
2022-11-25T10:38:19.489Z,91.3
2022-11-25T10:39:16.943Z,91.3
2022-11-25T10:40:17.540Z,90.8
2022-11-25T10:41:17.044Z,91.2
2022-11-25T10:42:16.744Z,90.9
2022-11-25T10:43:17.233Z,90.3
2022-11-25T10:44:16.762Z,90.1
2022-11-25T10:45:17.235Z,89.8
2022-11-25T10:46:16.903Z,89.3
2022-11-25T10:47:17.507Z,89.5
2022-11-25T10:48:17.008Z,89.8
2022-11-25T10:49:16.457Z,89.8
2022-11-25T10:50:16.988Z,89.3
2022-11-25T10:51:16.479Z,89.6
2022-11-25T10:52:17.211Z,89.5
2022-11-25T10:53:16.704Z,89.8
2022-11-25T10:54:18.106Z,89.8
2022-11-25T10:55:17.027Z,89.1
2022-11-25T10:56:16.534Z,88.4
2022-11-25T10:57:17.031Z,88.3
2022-11-25T10:58:16.506Z,88.7
2022-11-25T10:59:17.027Z,89.0
2022-11-25T11:00:17.841Z,89.1
2022-11-25T11:01:17.455Z,89.0
2022-11-25T11:02:16.822Z,88.2
2022-11-25T11:03:17.473Z,88.3
2022-11-25T11:04:17.053Z,88.0
2022-11-25T11:05:16.546Z,87.8
2022-11-25T11:06:17.005Z,87.5
2022-11-25T11:07:16.606Z,87.9
2022-11-25T11:08:17.118Z,87.7
2022-11-25T11:09:16.590Z,87.7
2022-11-25T11:10:17.202Z,87.8
2022-11-25T11:11:16.695Z,88.1
2022-11-25T11:12:16.982Z,87.6
2022-11-25T11:13:16.456Z,87.8
2022-11-25T11:14:16.962Z,88.4
2022-11-25T11:15:17.449Z,87.6
2022-11-25T11:16:17.100Z,86.9
2022-11-25T11:17:16.648Z,86.4
2022-11-25T11:18:17.136Z,86.8
2022-11-25T11:19:16.613Z,86.5
2022-11-25T11:20:17.080Z,87.1
2022-11-25T11:21:16.564Z,87.0
2022-11-25T11:22:17.161Z,87.8
2022-11-25T11:23:16.668Z,88.0
2022-11-25T11:24:17.180Z,87.7
2022-11-25T11:25:16.673Z,87.8
2022-11-25T11:26:17.189Z,87.8
2022-11-25T11:27:16.670Z,87.4
2022-11-25T11:28:17.163Z,87.3
2022-11-25T11:29:16.720Z,87.7
2022-11-25T11:30:17.212Z,87.2
2022-11-25T11:31:16.813Z,86.4
2022-11-25T11:32:17.226Z,87.2
2022-11-25T11:33:16.737Z,86.9
2022-11-25T11:34:17.209Z,86.3
2022-11-25T11:35:16.660Z,87.2
2022-11-25T11:36:17.120Z,86.4
2022-11-25T11:37:16.585Z,86.3
2022-11-25T11:38:17.080Z,86.5
2022-11-25T11:39:16.548Z,86.7
2022-11-25T11:40:17.076Z,85.3
2022-11-25T11:41:16.556Z,84.8
2022-11-25T11:42:17.286Z,85.2
2022-11-25T11:43:16.772Z,85.4
2022-11-25T11:44:17.239Z,85.5
2022-11-25T11:45:16.750Z,85.0
2022-11-25T11:46:17.342Z,84.6
2022-11-25T11:47:16.806Z,84.8
2022-11-25T11:48:17.295Z,84.9
2022-11-25T11:49:16.776Z,84.7
2022-11-25T11:50:17.259Z,85.0
2022-11-25T11:51:16.740Z,86.2
2022-11-25T11:52:17.322Z,86.1
2022-11-25T11:53:16.832Z,85.2
2022-11-25T11:54:17.313Z,86.1
2022-11-25T11:55:16.827Z,86.4
2022-11-25T11:56:35.548Z,85.2
2022-11-25T11:57:16.466Z,85.2
2022-11-25T11:58:16.944Z,85.4
2022-11-25T11:59:17.429Z,85.0
2022-11-25T12:00:16.913Z,85.7
2022-11-25T12:01:17.443Z,85.2
2022-11-25T12:02:17.306Z,85.8
2022-11-25T12:03:17.066Z,86.3
2022-11-25T12:04:16.614Z,86.0
2022-11-25T12:05:17.129Z,85.6
2022-11-25T12:06:16.666Z,86.5
2022-11-25T12:07:17.205Z,86.1
2022-11-25T12:08:16.715Z,85.1
2022-11-25T12:09:17.206Z,85.7
2022-11-25T12:10:16.683Z,86.0
2022-11-25T12:11:17.148Z,85.9
2022-11-25T12:12:16.968Z,85.6
2022-11-25T12:13:17.460Z,86.8
2022-11-25T12:14:16.951Z,85.9
2022-11-25T12:15:17.463Z,86.2
2022-11-25T12:16:17.345Z,86.1
2022-11-25T12:17:16.859Z,86.0
2022-11-25T12:18:17.342Z,87.2
2022-11-25T12:19:16.850Z,86.0
2022-11-25T12:20:17.369Z,85.8
2022-11-25T12:21:16.849Z,86.0
2022-11-25T12:22:17.334Z,86.5
2022-11-25T12:23:16.823Z,86.6
2022-11-25T12:24:17.317Z,87.0
2022-11-25T12:25:16.801Z,87.4
2022-11-25T12:26:17.268Z,87.9
2022-11-25T12:27:16.745Z,87.8
2022-11-25T12:28:17.225Z,87.5
2022-11-25T12:29:16.735Z,87.5
2022-11-25T12:30:17.225Z,87.6
2022-11-25T12:31:16.874Z,87.6
2022-11-25T12:32:17.417Z,87.2
2022-11-25T12:33:16.970Z,87.7
2022-11-25T12:34:16.568Z,88.2
2022-11-25T12:35:17.056Z,87.4
2022-11-25T12:36:16.533Z,87.3
2022-11-25T12:37:17.037Z,87.6
2022-11-25T12:38:16.536Z,87.6
2022-11-25T12:39:17.020Z,88.2
2022-11-25T12:40:16.525Z,88.1
2022-11-25T12:41:17.044Z,87.2
2022-11-25T12:42:16.907Z,87.1
2022-11-25T12:43:17.375Z,87.3
2022-11-25T12:44:16.887Z,87.3
2022-11-25T12:45:17.354Z,87.9
2022-11-25T12:46:17.029Z,88.2
2022-11-25T12:47:16.606Z,88.2
2022-11-25T12:48:21.769Z,88.4
2022-11-25T12:49:17.272Z,88.3
2022-11-25T12:50:16.763Z,88.4
2022-11-25T12:51:17.227Z,87.8
2022-11-25T12:52:17.145Z,88.3
2022-11-25T12:53:16.631Z,88.7
2022-11-25T12:54:17.109Z,88.0
2022-11-25T12:55:16.645Z,87.8
2022-11-25T12:56:17.106Z,87.9
2022-11-25T12:57:16.608Z,87.9
2022-11-25T12:58:17.167Z,88.4
2022-11-25T12:59:16.743Z,88.3
2022-11-25T13:00:42.214Z,88.4
2022-11-25T13:01:16.913Z,88.0
2022-11-25T13:02:17.209Z,87.3
2022-11-25T13:03:16.703Z,87.5